sensor_id;sensor_type;location;lat;lon;timestamp;P1;durP1;ratioP1;P2;durP2;ratioP2
39022;SDS011;25908;51.984;5.928;2023-05-14T00:01:46;11.85;;;7.47;;
39022;SDS011;25908;51.984;5.928;2023-05-14T00:04:11;9.40;;;6.45;;
39022;SDS011;25908;51.984;5.928;2023-05-14T00:06:37;9.15;;;7.43;;
39022;SDS011;25908;51.984;5.928;2023-05-14T00:09:03;10.18;;;7.38;;
39022;SDS011;25908;51.984;5.928;2023-05-14T00:11:29;12.13;;;7.28;;
39022;SDS011;25908;51.984;5.928;2023-05-14T00:13:55;9.18;;;7.00;;
39022;SDS011;25908;51.984;5.928;2023-05-14T00:16:20;13.73;;;8.38;;
39022;SDS011;25908;51.984;5.928;2023-05-14T00:18:46;12.48;;;7.40;;
39022;SDS011;25908;51.984;5.928;2023-05-14T00:21:12;9.55;;;7.15;;
39022;SDS011;25908;51.984;5.928;2023-05-14T00:23:38;10.77;;;7.60;;
39022;SDS011;25908;51.984;5.928;2023-05-14T00:26:04;12.23;;;8.20;;
39022;SDS011;25908;51.984;5.928;2023-05-14T00:28:30;10.65;;;7.55;;
39022;SDS011;25908;51.984;5.928;2023-05-14T00:30:55;13.32;;;8.93;;
39022;SDS011;25908;51.984;5.928;2023-05-14T00:33:21;10.23;;;7.68;;
39022;SDS011;25908;51.984;5.928;2023-05-14T00:35:46;10.90;;;8.13;;
39022;SDS011;25908;51.984;5.928;2023-05-14T00:38:12;10.30;;;7.72;;
39022;SDS011;25908;51.984;5.928;2023-05-14T00:40:41;12.23;;;8.00;;
39022;SDS011;25908;51.984;5.928;2023-05-14T00:43:09;10.13;;;7.57;;
39022;SDS011;25908;51.984;5.928;2023-05-14T00:45:35;11.27;;;8.00;;
39022;SDS011;25908;51.984;5.928;2023-05-14T00:48:01;10.48;;;7.45;;
39022;SDS011;25908;51.984;5.928;2023-05-14T00:50:27;9.65;;;7.72;;
39022;SDS011;25908;51.984;5.928;2023-05-14T00:52:53;10.75;;;7.78;;
39022;SDS011;25908;51.984;5.928;2023-05-14T00:55:19;11.43;;;8.00;;
39022;SDS011;25908;51.984;5.928;2023-05-14T00:57:46;14.60;;;8.20;;
39022;SDS011;25908;51.984;5.928;2023-05-14T01:00:12;11.93;;;8.23;;
39022;SDS011;25908;51.984;5.928;2023-05-14T01:02:38;13.93;;;8.00;;
39022;SDS011;25908;51.984;5.928;2023-05-14T01:05:03;9.80;;;7.70;;
39022;SDS011;25908;51.984;5.928;2023-05-14T01:07:32;12.38;;;8.40;;
39022;SDS011;25908;51.984;5.928;2023-05-14T01:10:17;11.50;;;8.43;;
39022;SDS011;25908;51.984;5.928;2023-05-14T01:13:12;10.82;;;8.13;;
39022;SDS011;25908;51.984;5.928;2023-05-14T01:15:50;10.23;;;8.00;;
39022;SDS011;25908;51.984;5.928;2023-05-14T01:18:19;11.93;;;7.85;;
39022;SDS011;25908;51.984;5.928;2023-05-14T01:20:48;10.77;;;7.93;;
39022;SDS011;25908;51.984;5.928;2023-05-14T01:23:16;12.27;;;8.70;;
39022;SDS011;25908;51.984;5.928;2023-05-14T01:25:41;10.00;;;7.80;;
39022;SDS011;25908;51.984;5.928;2023-05-14T01:28:17;12.38;;;8.38;;
39022;SDS011;25908;51.984;5.928;2023-05-14T01:30:56;11.15;;;7.78;;
39022;SDS011;25908;51.984;5.928;2023-05-14T01:33:27;10.82;;;7.60;;
39022;SDS011;25908;51.984;5.928;2023-05-14T01:35:53;12.02;;;8.23;;
39022;SDS011;25908;51.984;5.928;2023-05-14T01:38:20;12.18;;;8.57;;
39022;SDS011;25908;51.984;5.928;2023-05-14T01:40:47;13.32;;;8.35;;
39022;SDS011;25908;51.984;5.928;2023-05-14T01:43:14;13.52;;;9.18;;
39022;SDS011;25908;51.984;5.928;2023-05-14T01:45:40;11.73;;;8.40;;
39022;SDS011;25908;51.984;5.928;2023-05-14T01:48:07;12.35;;;8.43;;
39022;SDS011;25908;51.984;5.928;2023-05-14T01:50:33;10.65;;;8.82;;
39022;SDS011;25908;51.984;5.928;2023-05-14T01:52:58;13.55;;;8.90;;
39022;SDS011;25908;51.984;5.928;2023-05-14T01:55:24;9.98;;;8.48;;
39022;SDS011;25908;51.984;5.928;2023-05-14T01:57:50;16.23;;;9.32;;
39022;SDS011;25908;51.984;5.928;2023-05-14T02:00:16;11.00;;;8.88;;
39022;SDS011;25908;51.984;5.928;2023-05-14T02:02:42;13.13;;;8.43;;
39022;SDS011;25908;51.984;5.928;2023-05-14T02:05:08;14.50;;;9.38;;
39022;SDS011;25908;51.984;5.928;2023-05-14T02:07:35;11.93;;;9.45;;
39022;SDS011;25908;51.984;5.928;2023-05-14T02:10:00;10.98;;;8.57;;
39022;SDS011;25908;51.984;5.928;2023-05-14T02:12:26;12.88;;;8.73;;
39022;SDS011;25908;51.984;5.928;2023-05-14T02:14:52;13.70;;;8.60;;
39022;SDS011;25908;51.984;5.928;2023-05-14T02:17:17;13.38;;;9.23;;
39022;SDS011;25908;51.984;5.928;2023-05-14T02:19:43;14.23;;;9.50;;
39022;SDS011;25908;51.984;5.928;2023-05-14T02:22:09;16.65;;;9.82;;
39022;SDS011;25908;51.984;5.928;2023-05-14T02:24:34;12.00;;;8.98;;
39022;SDS011;25908;51.984;5.928;2023-05-14T02:27:00;17.60;;;10.30;;
39022;SDS011;25908;51.984;5.928;2023-05-14T02:29:26;16.90;;;10.18;;
39022;SDS011;25908;51.984;5.928;2023-05-14T02:31:51;10.85;;;9.25;;
39022;SDS011;25908;51.984;5.928;2023-05-14T02:34:17;15.40;;;9.30;;
39022;SDS011;25908;51.984;5.928;2023-05-14T02:36:42;12.93;;;9.90;;
39022;SDS011;25908;51.984;5.928;2023-05-14T02:39:08;12.23;;;9.77;;
39022;SDS011;25908;51.984;5.928;2023-05-14T02:41:34;12.38;;;9.73;;
39022;SDS011;25908;51.984;5.928;2023-05-14T02:43:59;12.55;;;9.68;;
39022;SDS011;25908;51.984;5.928;2023-05-14T02:46:25;13.45;;;9.00;;
39022;SDS011;25908;51.984;5.928;2023-05-14T02:48:50;12.88;;;9.48;;
39022;SDS011;25908;51.984;5.928;2023-05-14T02:51:18;13.45;;;10.20;;
39022;SDS011;25908;51.984;5.928;2023-05-14T02:53:44;12.70;;;9.52;;
39022;SDS011;25908;51.984;5.928;2023-05-14T02:56:10;15.55;;;10.30;;
39022;SDS011;25908;51.984;5.928;2023-05-14T02:58:35;16.80;;;10.95;;
39022;SDS011;25908;51.984;5.928;2023-05-14T03:01:01;16.50;;;10.95;;
39022;SDS011;25908;51.984;5.928;2023-05-14T03:03:27;16.10;;;10.30;;
39022;SDS011;25908;51.984;5.928;2023-05-14T03:05:54;18.00;;;10.55;;
39022;SDS011;25908;51.984;5.928;2023-05-14T03:08:19;13.00;;;10.55;;
39022;SDS011;25908;51.984;5.928;2023-05-14T03:10:45;16.65;;;10.55;;
39022;SDS011;25908;51.984;5.928;2023-05-14T03:13:10;16.05;;;10.50;;
39022;SDS011;25908;51.984;5.928;2023-05-14T03:15:36;16.45;;;10.32;;
39022;SDS011;25908;51.984;5.928;2023-05-14T03:18:02;15.52;;;10.55;;
39022;SDS011;25908;51.984;5.928;2023-05-14T03:20:27;12.02;;;10.00;;
39022;SDS011;25908;51.984;5.928;2023-05-14T03:22:53;16.17;;;10.80;;
39022;SDS011;25908;51.984;5.928;2023-05-14T03:25:20;14.70;;;10.02;;
39022;SDS011;25908;51.984;5.928;2023-05-14T03:27:45;14.55;;;10.95;;
39022;SDS011;25908;51.984;5.928;2023-05-14T03:30:11;14.15;;;11.38;;
39022;SDS011;25908;51.984;5.928;2023-05-14T03:32:37;15.80;;;11.50;;
39022;SDS011;25908;51.984;5.928;2023-05-14T03:35:03;14.02;;;11.25;;
39022;SDS011;25908;51.984;5.928;2023-05-14T03:37:28;17.75;;;10.98;;
39022;SDS011;25908;51.984;5.928;2023-05-14T03:39:54;18.50;;;11.43;;
39022;SDS011;25908;51.984;5.928;2023-05-14T03:42:20;14.23;;;10.85;;
39022;SDS011;25908;51.984;5.928;2023-05-14T03:44:45;17.45;;;11.88;;
39022;SDS011;25908;51.984;5.928;2023-05-14T03:47:11;16.65;;;11.57;;
39022;SDS011;25908;51.984;5.928;2023-05-14T03:49:36;16.67;;;11.70;;
39022;SDS011;25908;51.984;5.928;2023-05-14T03:52:02;17.40;;;11.35;;
39022;SDS011;25908;51.984;5.928;2023-05-14T03:54:27;15.10;;;11.27;;
39022;SDS011;25908;51.984;5.928;2023-05-14T03:56:53;16.83;;;11.68;;
39022;SDS011;25908;51.984;5.928;2023-05-14T03:59:18;14.20;;;10.65;;
39022;SDS011;25908;51.984;5.928;2023-05-14T04:01:44;16.27;;;11.57;;
39022;SDS011;25908;51.984;5.928;2023-05-14T04:04:09;14.65;;;10.98;;
39022;SDS011;25908;51.984;5.928;2023-05-14T04:06:35;14.27;;;10.77;;
39022;SDS011;25908;51.984;5.928;2023-05-14T04:09:01;15.73;;;12.60;;
39022;SDS011;25908;51.984;5.928;2023-05-14T04:11:27;17.00;;;11.07;;
39022;SDS011;25908;51.984;5.928;2023-05-14T04:13:53;17.23;;;11.57;;
39022;SDS011;25908;51.984;5.928;2023-05-14T04:16:19;14.43;;;10.63;;
39022;SDS011;25908;51.984;5.928;2023-05-14T04:18:44;19.27;;;12.60;;
39022;SDS011;25908;51.984;5.928;2023-05-14T04:21:10;16.90;;;12.05;;
39022;SDS011;25908;51.984;5.928;2023-05-14T04:23:36;18.80;;;11.43;;
39022;SDS011;25908;51.984;5.928;2023-05-14T04:26:01;16.00;;;11.80;;
39022;SDS011;25908;51.984;5.928;2023-05-14T04:28:27;17.23;;;11.15;;
39022;SDS011;25908;51.984;5.928;2023-05-14T04:30:53;13.82;;;11.75;;
39022;SDS011;25908;51.984;5.928;2023-05-14T04:33:18;16.15;;;11.27;;
39022;SDS011;25908;51.984;5.928;2023-05-14T04:35:44;18.15;;;12.73;;
39022;SDS011;25908;51.984;5.928;2023-05-14T04:38:10;14.25;;;11.18;;
39022;SDS011;25908;51.984;5.928;2023-05-14T04:40:37;15.80;;;12.10;;
39022;SDS011;25908;51.984;5.928;2023-05-14T04:43:03;17.85;;;11.55;;
39022;SDS011;25908;51.984;5.928;2023-05-14T04:45:29;15.40;;;11.35;;
39022;SDS011;25908;51.984;5.928;2023-05-14T04:47:54;16.95;;;11.45;;
39022;SDS011;25908;51.984;5.928;2023-05-14T04:50:20;15.95;;;11.45;;
39022;SDS011;25908;51.984;5.928;2023-05-14T04:52:46;19.17;;;12.32;;
39022;SDS011;25908;51.984;5.928;2023-05-14T04:55:11;18.55;;;11.30;;
39022;SDS011;25908;51.984;5.928;2023-05-14T04:57:37;19.13;;;12.55;;
39022;SDS011;25908;51.984;5.928;2023-05-14T05:00:02;19.33;;;11.88;;
39022;SDS011;25908;51.984;5.928;2023-05-14T05:02:30;15.32;;;11.13;;
39022;SDS011;25908;51.984;5.928;2023-05-14T05:04:55;15.30;;;11.43;;
39022;SDS011;25908;51.984;5.928;2023-05-14T05:07:21;13.73;;;11.38;;
39022;SDS011;25908;51.984;5.928;2023-05-14T05:09:46;14.65;;;11.20;;
39022;SDS011;25908;51.984;5.928;2023-05-14T05:12:12;16.02;;;11.32;;
39022;SDS011;25908;51.984;5.928;2023-05-14T05:14:38;14.50;;;11.82;;
39022;SDS011;25908;51.984;5.928;2023-05-14T05:17:03;16.45;;;12.00;;
39022;SDS011;25908;51.984;5.928;2023-05-14T05:19:29;16.23;;;12.02;;
39022;SDS011;25908;51.984;5.928;2023-05-14T05:21:54;16.73;;;12.18;;
39022;SDS011;25908;51.984;5.928;2023-05-14T05:24:20;15.38;;;11.45;;
39022;SDS011;25908;51.984;5.928;2023-05-14T05:26:45;17.58;;;11.38;;
39022;SDS011;25908;51.984;5.928;2023-05-14T05:29:11;19.50;;;11.68;;
39022;SDS011;25908;51.984;5.928;2023-05-14T05:31:37;18.90;;;11.68;;
39022;SDS011;25908;51.984;5.928;2023-05-14T05:34:02;16.40;;;11.40;;
39022;SDS011;25908;51.984;5.928;2023-05-14T05:36:28;16.92;;;12.15;;
39022;SDS011;25908;51.984;5.928;2023-05-14T05:38:54;16.05;;;11.07;;
39022;SDS011;25908;51.984;5.928;2023-05-14T05:41:20;15.98;;;11.48;;
39022;SDS011;25908;51.984;5.928;2023-05-14T05:43:46;18.48;;;11.40;;
39022;SDS011;25908;51.984;5.928;2023-05-14T05:46:11;15.23;;;11.23;;
39022;SDS011;25908;51.984;5.928;2023-05-14T05:48:37;15.00;;;11.10;;
39022;SDS011;25908;51.984;5.928;2023-05-14T05:51:03;18.10;;;11.90;;
39022;SDS011;25908;51.984;5.928;2023-05-14T05:53:28;17.48;;;12.30;;
39022;SDS011;25908;51.984;5.928;2023-05-14T05:55:54;15.90;;;9.90;;
39022;SDS011;25908;51.984;5.928;2023-05-14T05:58:19;13.90;;;11.20;;
39022;SDS011;25908;51.984;5.928;2023-05-14T06:00:45;14.43;;;10.77;;
39022;SDS011;25908;51.984;5.928;2023-05-14T06:03:12;15.80;;;10.73;;
39022;SDS011;25908;51.984;5.928;2023-05-14T06:05:37;13.52;;;10.05;;
39022;SDS011;25908;51.984;5.928;2023-05-14T06:08:03;14.10;;;10.05;;
39022;SDS011;25908;51.984;5.928;2023-05-14T06:10:29;14.05;;;10.20;;
39022;SDS011;25908;51.984;5.928;2023-05-14T06:12:55;16.77;;;10.68;;
39022;SDS011;25908;51.984;5.928;2023-05-14T06:15:21;14.98;;;9.82;;
39022;SDS011;25908;51.984;5.928;2023-05-14T06:17:47;14.65;;;10.27;;
39022;SDS011;25908;51.984;5.928;2023-05-14T06:20:12;17.98;;;10.75;;
39022;SDS011;25908;51.984;5.928;2023-05-14T06:22:38;11.70;;;9.35;;
39022;SDS011;25908;51.984;5.928;2023-05-14T06:25:04;15.98;;;9.65;;
39022;SDS011;25908;51.984;5.928;2023-05-14T06:27:30;14.27;;;9.43;;
39022;SDS011;25908;51.984;5.928;2023-05-14T06:29:55;13.43;;;9.60;;
39022;SDS011;25908;51.984;5.928;2023-05-14T06:32:21;16.30;;;9.02;;
39022;SDS011;25908;51.984;5.928;2023-05-14T06:34:46;14.60;;;10.15;;
39022;SDS011;25908;51.984;5.928;2023-05-14T06:37:12;10.60;;;8.88;;
39022;SDS011;25908;51.984;5.928;2023-05-14T06:39:39;11.55;;;8.68;;
39022;SDS011;25908;51.984;5.928;2023-05-14T06:42:10;13.48;;;8.30;;
39022;SDS011;25908;51.984;5.928;2023-05-14T06:44:36;13.18;;;8.88;;
39022;SDS011;25908;51.984;5.928;2023-05-14T06:47:01;11.80;;;8.77;;
39022;SDS011;25908;51.984;5.928;2023-05-14T06:49:27;10.95;;;7.78;;
39022;SDS011;25908;51.984;5.928;2023-05-14T06:51:52;12.50;;;8.82;;
39022;SDS011;25908;51.984;5.928;2023-05-14T06:54:18;13.60;;;8.43;;
39022;SDS011;25908;51.984;5.928;2023-05-14T06:56:44;10.82;;;7.95;;
39022;SDS011;25908;51.984;5.928;2023-05-14T06:59:10;12.93;;;8.13;;
39022;SDS011;25908;51.984;5.928;2023-05-14T07:01:36;11.73;;;7.72;;
39022;SDS011;25908;51.984;5.928;2023-05-14T07:04:01;12.10;;;8.13;;
39022;SDS011;25908;51.984;5.928;2023-05-14T07:06:27;9.52;;;7.03;;
39022;SDS011;25908;51.984;5.928;2023-05-14T07:08:53;9.70;;;6.65;;
39022;SDS011;25908;51.984;5.928;2023-05-14T07:11:18;11.40;;;7.45;;
39022;SDS011;25908;51.984;5.928;2023-05-14T07:13:44;10.50;;;6.38;;
39022;SDS011;25908;51.984;5.928;2023-05-14T07:16:09;10.93;;;6.75;;
39022;SDS011;25908;51.984;5.928;2023-05-14T07:18:35;10.27;;;6.65;;
39022;SDS011;25908;51.984;5.928;2023-05-14T07:21:01;8.35;;;6.05;;
39022;SDS011;25908;51.984;5.928;2023-05-14T07:23:30;18.70;;;6.70;;
39022;SDS011;25908;51.984;5.928;2023-05-14T07:25:57;14.38;;;5.90;;
39022;SDS011;25908;51.984;5.928;2023-05-14T07:28:23;8.10;;;5.22;;
39022;SDS011;25908;51.984;5.928;2023-05-14T07:30:48;7.65;;;5.70;;
39022;SDS011;25908;51.984;5.928;2023-05-14T07:33:14;10.88;;;5.75;;
39022;SDS011;25908;51.984;5.928;2023-05-14T07:35:39;9.50;;;5.72;;
39022;SDS011;25908;51.984;5.928;2023-05-14T07:38:05;8.55;;;5.40;;
39022;SDS011;25908;51.984;5.928;2023-05-14T07:40:31;11.70;;;5.80;;
39022;SDS011;25908;51.984;5.928;2023-05-14T07:42:56;8.52;;;5.50;;
39022;SDS011;25908;51.984;5.928;2023-05-14T07:45:22;8.07;;;5.30;;
39022;SDS011;25908;51.984;5.928;2023-05-14T07:47:47;7.35;;;5.07;;
39022;SDS011;25908;51.984;5.928;2023-05-14T07:50:16;8.77;;;4.85;;
39022;SDS011;25908;51.984;5.928;2023-05-14T07:52:42;11.43;;;5.90;;
39022;SDS011;25908;51.984;5.928;2023-05-14T07:55:08;8.38;;;5.28;;
39022;SDS011;25908;51.984;5.928;2023-05-14T07:57:34;7.15;;;4.90;;
39022;SDS011;25908;51.984;5.928;2023-05-14T08:00:00;9.07;;;5.53;;
39022;SDS011;25908;51.984;5.928;2023-05-14T08:02:25;7.28;;;4.38;;
39022;SDS011;25908;51.984;5.928;2023-05-14T08:04:52;9.63;;;5.43;;
39022;SDS011;25908;51.984;5.928;2023-05-14T08:07:17;7.95;;;4.72;;
39022;SDS011;25908;51.984;5.928;2023-05-14T08:09:43;8.10;;;4.90;;
39022;SDS011;25908;51.984;5.928;2023-05-14T08:12:09;7.20;;;4.32;;
39022;SDS011;25908;51.984;5.928;2023-05-14T08:14:34;7.80;;;4.53;;
39022;SDS011;25908;51.984;5.928;2023-05-14T08:17:00;7.22;;;3.70;;
39022;SDS011;25908;51.984;5.928;2023-05-14T08:19:25;8.05;;;4.53;;
39022;SDS011;25908;51.984;5.928;2023-05-14T08:21:51;7.45;;;4.80;;
39022;SDS011;25908;51.984;5.928;2023-05-14T08:24:17;5.93;;;3.65;;
39022;SDS011;25908;51.984;5.928;2023-05-14T08:26:43;4.63;;;3.42;;
39022;SDS011;25908;51.984;5.928;2023-05-14T08:29:08;6.90;;;3.70;;
39022;SDS011;25908;51.984;5.928;2023-05-14T08:31:34;7.05;;;3.90;;
39022;SDS011;25908;51.984;5.928;2023-05-14T08:34:00;6.05;;;3.30;;
39022;SDS011;25908;51.984;5.928;2023-05-14T08:36:26;4.82;;;3.50;;
39022;SDS011;25908;51.984;5.928;2023-05-14T08:38:51;6.53;;;3.42;;
39022;SDS011;25908;51.984;5.928;2023-05-14T08:41:17;6.85;;;3.58;;
39022;SDS011;25908;51.984;5.928;2023-05-14T08:43:43;8.15;;;3.10;;
39022;SDS011;25908;51.984;5.928;2023-05-14T08:46:16;5.78;;;2.53;;
39022;SDS011;25908;51.984;5.928;2023-05-14T08:48:46;4.63;;;2.78;;
39022;SDS011;25908;51.984;5.928;2023-05-14T08:51:13;5.03;;;3.15;;
39022;SDS011;25908;51.984;5.928;2023-05-14T08:53:39;5.88;;;3.00;;
39022;SDS011;25908;51.984;5.928;2023-05-14T08:56:05;4.57;;;3.17;;
39022;SDS011;25908;51.984;5.928;2023-05-14T08:58:32;6.22;;;2.70;;
39022;SDS011;25908;51.984;5.928;2023-05-14T09:00:58;5.07;;;3.08;;
39022;SDS011;25908;51.984;5.928;2023-05-14T09:03:23;5.72;;;2.72;;
39022;SDS011;25908;51.984;5.928;2023-05-14T09:05:49;4.40;;;2.50;;
39022;SDS011;25908;51.984;5.928;2023-05-14T09:08:16;3.42;;;2.38;;
39022;SDS011;25908;51.984;5.928;2023-05-14T09:10:41;3.42;;;2.42;;
39022;SDS011;25908;51.984;5.928;2023-05-14T09:13:07;8.18;;;3.55;;
39022;SDS011;25908;51.984;5.928;2023-05-14T09:15:34;5.88;;;2.20;;
39022;SDS011;25908;51.984;5.928;2023-05-14T09:18:01;2.92;;;2.30;;
39022;SDS011;25908;51.984;5.928;2023-05-14T09:20:29;3.67;;;2.08;;
39022;SDS011;25908;51.984;5.928;2023-05-14T09:22:56;4.05;;;2.35;;
39022;SDS011;25908;51.984;5.928;2023-05-14T09:25:28;3.85;;;2.08;;
39022;SDS011;25908;51.984;5.928;2023-05-14T09:27:56;2.97;;;1.90;;
39022;SDS011;25908;51.984;5.928;2023-05-14T09:30:22;6.18;;;2.30;;
39022;SDS011;25908;51.984;5.928;2023-05-14T09:32:48;3.33;;;2.40;;
39022;SDS011;25908;51.984;5.928;2023-05-14T09:35:18;3.55;;;2.50;;
39022;SDS011;25908;51.984;5.928;2023-05-14T09:37:48;5.30;;;2.60;;
39022;SDS011;25908;51.984;5.928;2023-05-14T09:40:15;5.20;;;1.98;;
39022;SDS011;25908;51.984;5.928;2023-05-14T09:42:41;4.55;;;2.10;;
39022;SDS011;25908;51.984;5.928;2023-05-14T09:45:07;4.40;;;2.13;;
39022;SDS011;25908;51.984;5.928;2023-05-14T09:47:33;5.65;;;1.92;;
39022;SDS011;25908;51.984;5.928;2023-05-14T09:49:59;2.88;;;1.92;;
39022;SDS011;25908;51.984;5.928;2023-05-14T09:52:25;4.15;;;2.30;;
39022;SDS011;25908;51.984;5.928;2023-05-14T09:54:51;5.60;;;2.25;;
39022;SDS011;25908;51.984;5.928;2023-05-14T09:57:17;3.25;;;1.90;;
39022;SDS011;25908;51.984;5.928;2023-05-14T09:59:43;2.40;;;1.63;;
39022;SDS011;25908;51.984;5.928;2023-05-14T10:02:12;4.88;;;2.15;;
39022;SDS011;25908;51.984;5.928;2023-05-14T10:04:46;3.67;;;2.05;;
39022;SDS011;25908;51.984;5.928;2023-05-14T10:07:13;3.83;;;2.00;;
39022;SDS011;25908;51.984;5.928;2023-05-14T10:09:41;5.47;;;1.92;;
39022;SDS011;25908;51.984;5.928;2023-05-14T10:12:08;4.72;;;2.63;;
39022;SDS011;25908;51.984;5.928;2023-05-14T10:14:37;4.40;;;2.50;;
39022;SDS011;25908;51.984;5.928;2023-05-14T10:17:06;3.03;;;1.95;;
39022;SDS011;25908;51.984;5.928;2023-05-14T10:19:42;4.93;;;2.35;;
39022;SDS011;25908;51.984;5.928;2023-05-14T10:22:14;5.05;;;2.25;;
39022;SDS011;25908;51.984;5.928;2023-05-14T10:24:42;4.18;;;2.35;;
39022;SDS011;25908;51.984;5.928;2023-05-14T10:27:09;6.53;;;3.13;;
39022;SDS011;25908;51.984;5.928;2023-05-14T10:29:36;4.47;;;2.33;;
39022;SDS011;25908;51.984;5.928;2023-05-14T10:32:08;3.70;;;2.47;;
39022;SDS011;25908;51.984;5.928;2023-05-14T10:37:25;5.95;;;2.53;;
39022;SDS011;25908;51.984;5.928;2023-05-14T10:39:58;3.83;;;2.40;;
39022;SDS011;25908;51.984;5.928;2023-05-14T10:42:26;4.25;;;2.35;;
39022;SDS011;25908;51.984;5.928;2023-05-14T10:44:57;5.72;;;2.30;;
39022;SDS011;25908;51.984;5.928;2023-05-14T10:47:31;4.40;;;2.80;;
39022;SDS011;25908;51.984;5.928;2023-05-14T10:49:57;4.40;;;2.65;;
39022;SDS011;25908;51.984;5.928;2023-05-14T10:52:25;4.65;;;2.50;;
39022;SDS011;25908;51.984;5.928;2023-05-14T10:54:57;4.00;;;2.58;;
39022;SDS011;25908;51.984;5.928;2023-05-14T10:57:26;6.55;;;2.50;;
39022;SDS011;25908;51.984;5.928;2023-05-14T10:59:54;3.47;;;2.33;;
39022;SDS011;25908;51.984;5.928;2023-05-14T11:07:43;3.47;;;2.10;;
39022;SDS011;25908;51.984;5.928;2023-05-14T11:10:19;2.78;;;2.10;;
39022;SDS011;25908;51.984;5.928;2023-05-14T11:12:46;3.55;;;2.22;;
39022;SDS011;25908;51.984;5.928;2023-05-14T11:15:13;3.33;;;2.17;;
39022;SDS011;25908;51.984;5.928;2023-05-14T11:17:45;4.45;;;2.15;;
39022;SDS011;25908;51.984;5.928;2023-05-14T11:20:11;3.75;;;2.17;;
39022;SDS011;25908;51.984;5.928;2023-05-14T11:22:38;3.58;;;2.03;;
39022;SDS011;25908;51.984;5.928;2023-05-14T11:25:05;2.75;;;2.03;;
39022;SDS011;25908;51.984;5.928;2023-05-14T11:27:35;3.65;;;1.92;;
39022;SDS011;25908;51.984;5.928;2023-05-14T11:30:02;3.00;;;1.83;;
39022;SDS011;25908;51.984;5.928;2023-05-14T11:32:30;3.10;;;1.90;;
39022;SDS011;25908;51.984;5.928;2023-05-14T11:34:56;3.20;;;2.15;;
39022;SDS011;25908;51.984;5.928;2023-05-14T11:37:22;3.88;;;1.80;;
39022;SDS011;25908;51.984;5.928;2023-05-14T11:39:52;2.60;;;1.92;;
39022;SDS011;25908;51.984;5.928;2023-05-14T11:42:19;4.15;;;2.00;;
39022;SDS011;25908;51.984;5.928;2023-05-14T11:44:46;4.20;;;2.20;;
39022;SDS011;25908;51.984;5.928;2023-05-14T11:47:13;2.88;;;1.67;;
39022;SDS011;25908;51.984;5.928;2023-05-14T11:49:39;3.60;;;2.00;;
39022;SDS011;25908;51.984;5.928;2023-05-14T11:52:06;6.97;;;2.28;;
39022;SDS011;25908;51.984;5.928;2023-05-14T11:54:34;3.00;;;1.88;;
39022;SDS011;25908;51.984;5.928;2023-05-14T11:57:01;3.92;;;2.13;;
39022;SDS011;25908;51.984;5.928;2023-05-14T11:59:32;2.90;;;1.75;;
39022;SDS011;25908;51.984;5.928;2023-05-14T12:01:58;4.13;;;2.17;;
39022;SDS011;25908;51.984;5.928;2023-05-14T12:04:24;4.32;;;2.15;;
39022;SDS011;25908;51.984;5.928;2023-05-14T12:06:50;3.30;;;2.03;;
39022;SDS011;25908;51.984;5.928;2023-05-14T12:09:20;4.53;;;2.05;;
39022;SDS011;25908;51.984;5.928;2023-05-14T12:11:46;4.00;;;2.08;;
39022;SDS011;25908;51.984;5.928;2023-05-14T12:14:14;2.70;;;1.85;;
39022;SDS011;25908;51.984;5.928;2023-05-14T12:16:41;3.38;;;2.00;;
39022;SDS011;25908;51.984;5.928;2023-05-14T12:19:08;4.05;;;2.80;;
39022;SDS011;25908;51.984;5.928;2023-05-14T12:21:35;4.38;;;2.13;;
39022;SDS011;25908;51.984;5.928;2023-05-14T12:24:02;4.45;;;2.20;;
39022;SDS011;25908;51.984;5.928;2023-05-14T12:26:31;4.43;;;2.08;;
39022;SDS011;25908;51.984;5.928;2023-05-14T12:29:01;2.75;;;1.92;;
39022;SDS011;25908;51.984;5.928;2023-05-14T12:33:56;4.40;;;2.00;;
39022;SDS011;25908;51.984;5.928;2023-05-14T12:36:22;2.65;;;1.77;;
39022;SDS011;25908;51.984;5.928;2023-05-14T12:38:48;5.30;;;2.08;;
39022;SDS011;25908;51.984;5.928;2023-05-14T12:41:14;4.78;;;2.20;;
39022;SDS011;25908;51.984;5.928;2023-05-14T12:43:44;4.30;;;2.05;;
39022;SDS011;25908;51.984;5.928;2023-05-14T12:46:12;4.72;;;2.30;;
39022;SDS011;25908;51.984;5.928;2023-05-14T12:48:37;3.53;;;1.90;;
39022;SDS011;25908;51.984;5.928;2023-05-14T12:51:03;5.47;;;1.90;;
39022;SDS011;25908;51.984;5.928;2023-05-14T12:53:28;2.78;;;1.95;;
39022;SDS011;25908;51.984;5.928;2023-05-14T12:55:54;2.65;;;1.83;;
39022;SDS011;25908;51.984;5.928;2023-05-14T12:58:19;4.18;;;2.08;;
39022;SDS011;25908;51.984;5.928;2023-05-14T13:00:45;3.80;;;2.08;;
39022;SDS011;25908;51.984;5.928;2023-05-14T13:03:10;3.50;;;2.20;;
39022;SDS011;25908;51.984;5.928;2023-05-14T13:05:36;3.47;;;2.40;;
39022;SDS011;25908;51.984;5.928;2023-05-14T13:08:02;2.53;;;1.75;;
39022;SDS011;25908;51.984;5.928;2023-05-14T13:10:28;4.82;;;1.80;;
39022;SDS011;25908;51.984;5.928;2023-05-14T13:12:53;4.45;;;2.13;;
39022;SDS011;25908;51.984;5.928;2023-05-14T13:15:20;5.43;;;2.70;;
39022;SDS011;25908;51.984;5.928;2023-05-14T13:17:46;6.22;;;3.38;;
39022;SDS011;25908;51.984;5.928;2023-05-14T13:20:12;5.20;;;3.20;;
39022;SDS011;25908;51.984;5.928;2023-05-14T13:22:38;4.68;;;2.88;;
39022;SDS011;25908;51.984;5.928;2023-05-14T13:25:03;6.03;;;2.90;;
39022;SDS011;25908;51.984;5.928;2023-05-14T13:27:30;6.22;;;3.50;;
39022;SDS011;25908;51.984;5.928;2023-05-14T13:29:56;3.83;;;2.70;;
39022;SDS011;25908;51.984;5.928;2023-05-14T13:32:22;6.53;;;2.78;;
39022;SDS011;25908;51.984;5.928;2023-05-14T13:34:48;5.05;;;2.88;;
39022;SDS011;25908;51.984;5.928;2023-05-14T13:37:16;6.85;;;3.63;;
39022;SDS011;25908;51.984;5.928;2023-05-14T13:39:42;6.03;;;2.90;;
39022;SDS011;25908;51.984;5.928;2023-05-14T13:42:07;5.75;;;2.97;;
39022;SDS011;25908;51.984;5.928;2023-05-14T13:44:33;5.03;;;2.25;;
39022;SDS011;25908;51.984;5.928;2023-05-14T13:47:00;4.38;;;2.50;;
39022;SDS011;25908;51.984;5.928;2023-05-14T13:49:25;4.55;;;2.80;;
39022;SDS011;25908;51.984;5.928;2023-05-14T13:51:51;5.22;;;2.92;;
39022;SDS011;25908;51.984;5.928;2023-05-14T13:54:16;4.85;;;2.40;;
39022;SDS011;25908;51.984;5.928;2023-05-14T13:56:42;3.40;;;2.28;;
39022;SDS011;25908;51.984;5.928;2023-05-14T13:59:07;5.20;;;2.70;;
39022;SDS011;25908;51.984;5.928;2023-05-14T14:01:33;5.57;;;2.65;;
39022;SDS011;25908;51.984;5.928;2023-05-14T14:03:59;4.13;;;2.60;;
39022;SDS011;25908;51.984;5.928;2023-05-14T14:06:25;4.78;;;2.72;;
39022;SDS011;25908;51.984;5.928;2023-05-14T14:08:51;5.95;;;2.72;;
39022;SDS011;25908;51.984;5.928;2023-05-14T14:11:17;5.15;;;2.80;;
39022;SDS011;25908;51.984;5.928;2023-05-14T14:13:42;5.82;;;2.75;;
39022;SDS011;25908;51.984;5.928;2023-05-14T14:16:08;5.50;;;3.20;;
39022;SDS011;25908;51.984;5.928;2023-05-14T14:18:34;6.90;;;3.13;;
39022;SDS011;25908;51.984;5.928;2023-05-14T14:21:00;4.95;;;2.55;;
39022;SDS011;25908;51.984;5.928;2023-05-14T14:23:25;4.82;;;2.50;;
39022;SDS011;25908;51.984;5.928;2023-05-14T14:25:51;3.42;;;2.25;;
39022;SDS011;25908;51.984;5.928;2023-05-14T14:28:16;4.75;;;2.72;;
39022;SDS011;25908;51.984;5.928;2023-05-14T14:30:43;4.50;;;2.40;;
39022;SDS011;25908;51.984;5.928;2023-05-14T14:33:08;3.30;;;2.38;;
39022;SDS011;25908;51.984;5.928;2023-05-14T14:35:35;4.82;;;2.85;;
39022;SDS011;25908;51.984;5.928;2023-05-14T14:38:01;4.70;;;2.50;;
39022;SDS011;25908;51.984;5.928;2023-05-14T14:40:27;4.13;;;2.75;;
39022;SDS011;25908;51.984;5.928;2023-05-14T14:42:53;4.60;;;2.58;;
39022;SDS011;25908;51.984;5.928;2023-05-14T14:45:19;6.35;;;2.70;;